createdAt,value
2017-11-22T00:00:27.531Z,0
2017-11-22T00:01:39.589Z,0
2017-11-22T00:02:52.142Z,0
2017-11-22T00:04:05.119Z,0
2017-11-22T00:05:18.115Z,0
2017-11-22T00:06:30.163Z,0
2017-11-22T00:07:43.144Z,0
2017-11-22T00:08:56.152Z,0
2017-11-22T00:10:09.158Z,0
2017-11-22T00:11:21.228Z,0
2017-11-22T00:12:34.248Z,0
2017-11-22T00:13:46.750Z,0
2017-11-22T00:14:59.738Z,0
2017-11-22T00:16:12.303Z,0
2017-11-22T00:17:25.280Z,0
2017-11-22T00:18:37.810Z,0
2017-11-22T00:19:50.841Z,0
2017-11-22T00:21:03.870Z,0
2017-11-22T00:22:16.402Z,0
2017-11-22T00:23:28.935Z,0
2017-11-22T00:24:41.925Z,0
2017-11-22T00:25:54.494Z,0
2017-11-22T00:27:07.016Z,0
2017-11-22T00:28:20.028Z,0
2017-11-22T00:29:33.058Z,0
2017-11-22T00:30:46.071Z,0
2017-11-22T00:31:59.092Z,0
2017-11-22T00:33:12.131Z,0
2017-11-22T00:34:25.108Z,0
2017-11-22T00:35:38.086Z,0
2017-11-22T00:36:51.098Z,0
2017-11-22T00:38:03.622Z,0
2017-11-22T00:39:16.636Z,0
2017-11-22T00:40:29.591Z,0
2017-11-22T00:41:42.616Z,0
2017-11-22T00:42:55.650Z,0
2017-11-22T00:44:08.654Z,0
2017-11-22T00:45:21.634Z,0
2017-11-22T00:46:34.640Z,0
2017-11-22T00:47:47.193Z,0
2017-11-22T00:48:59.697Z,0
2017-11-22T00:50:12.238Z,0
2017-11-22T00:51:25.218Z,0
2017-11-22T00:52:38.219Z,0
2017-11-22T00:53:51.193Z,0
2017-11-22T00:55:04.248Z,0
2017-11-22T00:56:17.259Z,0
2017-11-22T00:57:30.257Z,0
2017-11-22T00:58:43.271Z,0
2017-11-22T00:59:56.228Z,0
2017-11-22T01:01:09.206Z,0
2017-11-22T01:02:22.198Z,0
2017-11-22T01:03:35.184Z,0
2017-11-22T01:04:47.685Z,0
2017-11-22T01:06:00.706Z,0
2017-11-22T01:07:13.247Z,0
2017-11-22T01:08:26.251Z,0
2017-11-22T01:09:39.260Z,0
2017-11-22T01:10:52.267Z,0
2017-11-22T01:12:05.255Z,0
2017-11-22T01:13:18.262Z,0
2017-11-22T01:14:31.285Z,0
2017-11-22T01:15:44.473Z,0
2017-11-22T01:16:56.979Z,0
2017-11-22T01:18:09.991Z,0
2017-11-22T01:19:22.505Z,0
2017-11-22T01:20:35.493Z,0
2017-11-22T01:21:48.497Z,0
2017-11-22T01:23:01.514Z,0
2017-11-22T01:24:14.046Z,0
2017-11-22T01:25:26.099Z,0
2017-11-22T01:26:38.622Z,0
2017-11-22T01:27:51.599Z,0
2017-11-22T01:29:04.591Z,0
2017-11-22T01:30:17.543Z,0
2017-11-22T01:31:30.046Z,0
2017-11-22T01:32:43.076Z,0
2017-11-22T01:33:55.628Z,0
2017-11-22T01:35:08.176Z,0
2017-11-22T01:36:20.709Z,0
2017-11-22T01:37:33.698Z,0
2017-11-22T01:38:46.181Z,0
2017-11-22T01:39:59.202Z,0
2017-11-22T01:41:12.204Z,0
2017-11-22T01:42:25.207Z,0
2017-11-22T01:43:38.216Z,0
2017-11-22T01:44:50.923Z,0
2017-11-22T01:46:03.898Z,0
2017-11-22T01:47:16.914Z,0
2017-11-22T01:48:29.033Z,0
2017-11-22T01:49:42.038Z,0
2017-11-22T01:50:55.023Z,0
2017-11-22T01:52:08.035Z,0
2017-11-22T01:53:21.014Z,0
2017-11-22T01:54:34.034Z,0
2017-11-22T01:55:46.998Z,0
2017-11-22T01:56:59.521Z,0
2017-11-22T01:58:12.529Z,0
2017-11-22T01:59:25.542Z,0
2017-11-22T02:00:38.539Z,0
2017-11-22T02:01:51.035Z,0
2017-11-22T02:03:04.049Z,0
2017-11-22T02:04:16.605Z,0
2017-11-22T02:05:29.635Z,0
2017-11-22T02:06:42.185Z,0
2017-11-22T02:07:55.184Z,0
2017-11-22T02:09:08.233Z,0
2017-11-22T02:10:21.254Z,0
2017-11-22T02:11:34.329Z,0
2017-11-22T02:12:47.320Z,0
2017-11-22T02:13:59.988Z,0
2017-11-22T02:15:13.009Z,0
2017-11-22T02:16:25.998Z,0
2017-11-22T02:17:38.961Z,0
2017-11-22T02:18:51.506Z,0
2017-11-22T02:20:04.471Z,0
2017-11-22T02:21:17.489Z,0
2017-11-22T02:22:29.070Z,0
2017-11-22T02:23:42.083Z,0
2017-11-22T02:24:55.083Z,0
2017-11-22T02:26:07.636Z,0
2017-11-22T02:27:20.606Z,0
2017-11-22T02:28:33.603Z,0
2017-11-22T02:29:46.590Z,0
2017-11-22T02:30:59.635Z,0
2017-11-22T02:32:12.180Z,0
2017-11-22T02:33:25.176Z,0
2017-11-22T02:34:38.164Z,0
2017-11-22T02:35:51.242Z,0
2017-11-22T02:37:03.817Z,0
2017-11-22T02:38:16.828Z,0
2017-11-22T02:39:29.851Z,0
2017-11-22T02:40:42.387Z,0
2017-11-22T02:41:55.404Z,0
2017-11-22T02:43:08.475Z,0
2017-11-22T02:44:21.056Z,0
2017-11-22T02:45:34.248Z,0
2017-11-22T02:46:47.269Z,0
2017-11-22T02:48:00.252Z,0
2017-11-22T02:49:13.276Z,0
2017-11-22T02:50:25.859Z,0
2017-11-22T02:51:38.416Z,0
2017-11-22T02:52:50.914Z,0
2017-11-22T02:54:03.961Z,0
2017-11-22T02:55:16.957Z,0
2017-11-22T02:56:29.963Z,0
2017-11-22T02:57:42.997Z,0
2017-11-22T02:58:56.006Z,0
2017-11-22T03:00:09.021Z,0
2017-11-22T03:01:22.025Z,0
2017-11-22T03:02:35.028Z,0
2017-11-22T03:03:47.999Z,0
2017-11-22T03:05:01.027Z,0
2017-11-22T03:06:13.096Z,0
2017-11-22T03:07:26.275Z,0
2017-11-22T03:08:38.960Z,0
2017-11-22T03:09:51.916Z,0
2017-11-22T03:11:04.892Z,0
2017-11-22T03:12:17.888Z,0
2017-11-22T03:13:30.429Z,0
2017-11-22T03:14:43.462Z,0
2017-11-22T03:15:56.458Z,0
2017-11-22T03:17:08.983Z,0
2017-11-22T03:18:21.976Z,0
2017-11-22T03:19:34.964Z,0
2017-11-22T03:20:47.905Z,0
2017-11-22T03:22:00.464Z,0
2017-11-22T03:23:13.180Z,0
2017-11-22T03:24:25.764Z,0
2017-11-22T03:25:38.806Z,0
2017-11-22T03:26:51.798Z,0
2017-11-22T03:28:04.945Z,0
2017-11-22T03:29:18.020Z,0
2017-11-22T03:30:31.016Z,0
2017-11-22T03:31:44.076Z,0
2017-11-22T03:32:57.073Z,0
2017-11-22T03:34:10.054Z,0
2017-11-22T03:35:23.054Z,0
2017-11-22T03:36:36.063Z,0
2017-11-22T03:37:49.084Z,0
2017-11-22T03:39:02.095Z,0
2017-11-22T03:40:15.117Z,0
2017-11-22T03:41:28.187Z,0
2017-11-22T03:42:41.200Z,0
2017-11-22T03:43:53.688Z,0
2017-11-22T03:45:06.236Z,0
2017-11-22T03:46:19.235Z,0
2017-11-22T03:47:32.247Z,0
2017-11-22T03:48:45.206Z,0
2017-11-22T03:49:58.213Z,0
2017-11-22T03:51:10.768Z,0
2017-11-22T03:52:23.311Z,0
2017-11-22T03:53:36.323Z,0
2017-11-22T03:54:48.935Z,0
2017-11-22T03:56:01.933Z,0
2017-11-22T03:57:14.950Z,0
2017-11-22T03:58:28.070Z,0
2017-11-22T03:59:41.105Z,0
2017-11-22T04:00:54.100Z,0
2017-11-22T04:02:06.640Z,0
2017-11-22T04:03:18.668Z,0
2017-11-22T04:04:30.971Z,0
2017-11-22T04:05:44.153Z,0
2017-11-22T04:06:57.150Z,0
2017-11-22T04:08:10.131Z,0
2017-11-22T04:09:23.127Z,0
2017-11-22T04:10:36.127Z,0
2017-11-22T04:11:49.111Z,0
2017-11-22T04:13:02.103Z,0
2017-11-22T04:14:15.124Z,0
2017-11-22T04:15:28.112Z,0
2017-11-22T04:16:40.669Z,0
2017-11-22T04:17:53.689Z,0
2017-11-22T04:19:06.680Z,0
2017-11-22T04:20:19.694Z,0
2017-11-22T04:21:32.841Z,0
2017-11-22T04:22:45.363Z,0
2017-11-22T04:23:58.318Z,0
2017-11-22T04:25:11.343Z,0
2017-11-22T04:26:24.315Z,0
2017-11-22T04:27:37.308Z,0
2017-11-22T04:28:49.804Z,0
2017-11-22T04:30:02.846Z,0
2017-11-22T04:31:15.313Z,0
2017-11-22T04:32:28.294Z,0
2017-11-22T04:33:40.806Z,0
2017-11-22T04:34:52.865Z,0
2017-11-22T04:36:05.409Z,0
2017-11-22T04:37:17.920Z,0
2017-11-22T04:38:30.862Z,0
2017-11-22T04:39:43.820Z,0
2017-11-22T04:40:55.843Z,0
2017-11-22T04:42:07.892Z,0
2017-11-22T04:43:20.420Z,0
2017-11-22T04:44:33.402Z,0
2017-11-22T04:45:46.409Z,0
2017-11-22T04:46:59.485Z,0
2017-11-22T04:48:12.529Z,0
2017-11-22T04:49:25.059Z,0
2017-11-22T04:50:38.044Z,0
2017-11-22T04:51:51.022Z,0
2017-11-22T04:53:04.053Z,0
2017-11-22T04:54:16.617Z,0
2017-11-22T04:55:29.148Z,0
2017-11-22T04:56:42.145Z,0
2017-11-22T04:57:55.120Z,0
2017-11-22T04:59:08.154Z,0
2017-11-22T05:00:21.404Z,0
2017-11-22T05:01:34.377Z,0
2017-11-22T05:02:47.357Z,0
2017-11-22T05:04:00.343Z,0
2017-11-22T05:05:12.828Z,0
2017-11-22T05:06:25.354Z,0
2017-11-22T05:07:38.351Z,0
2017-11-22T05:08:51.365Z,0
2017-11-22T05:10:04.437Z,0
2017-11-22T05:11:17.442Z,0
2017-11-22T05:12:30.439Z,0
2017-11-22T05:13:43.491Z,0
2017-11-22T05:14:56.476Z,0
2017-11-22T05:16:09.449Z,0
2017-11-22T05:17:22.460Z,0
2017-11-22T05:18:35.439Z,0
2017-11-22T05:19:48.460Z,0
2017-11-22T05:21:00.959Z,0
2017-11-22T05:22:13.975Z,0
2017-11-22T05:23:26.962Z,0
2017-11-22T05:24:39.942Z,0
2017-11-22T05:25:52.924Z,0
2017-11-22T05:27:05.937Z,0
2017-11-22T05:28:18.922Z,0
2017-11-22T05:29:31.895Z,0
2017-11-22T05:30:44.869Z,0
2017-11-22T05:31:57.878Z,0
2017-11-22T05:33:10.905Z,0
2017-11-22T05:34:23.901Z,0
2017-11-22T05:35:37.084Z,0
2017-11-22T05:36:50.071Z,0
2017-11-22T05:38:03.075Z,0
2017-11-22T05:39:16.041Z,0
2017-11-22T05:40:29.272Z,0
2017-11-22T05:41:42.290Z,0
2017-11-22T05:42:54.822Z,0
2017-11-22T05:44:07.787Z,0
2017-11-22T05:45:20.741Z,0
2017-11-22T05:46:33.716Z,0
2017-11-22T05:47:46.753Z,0
2017-11-22T05:48:59.733Z,0
2017-11-22T05:50:12.700Z,0
2017-11-22T05:51:25.736Z,0
2017-11-22T05:52:38.198Z,0
2017-11-22T05:53:51.165Z,0
2017-11-22T05:55:04.126Z,0
2017-11-22T05:56:16.676Z,0
2017-11-22T05:57:29.223Z,0
2017-11-22T05:58:42.258Z,0
2017-11-22T05:59:55.429Z,0
2017-11-22T06:01:07.937Z,0
2017-11-22T06:02:20.987Z,0
2017-11-22T06:03:33.980Z,0
2017-11-22T06:04:46.963Z,0
2017-11-22T06:05:59.963Z,0
2017-11-22T06:07:12.507Z,0
2017-11-22T06:08:25.058Z,0
2017-11-22T06:09:37.574Z,0
2017-11-22T06:10:49.663Z,0
2017-11-22T06:12:01.743Z,0
2017-11-22T06:13:14.850Z,0
2017-11-22T06:14:27.828Z,0
2017-11-22T06:15:40.794Z,0
2017-11-22T06:16:53.787Z,0
2017-11-22T06:18:06.762Z,0
2017-11-22T06:19:18.854Z,0
2017-11-22T06:20:31.846Z,0
2017-11-22T06:21:44.389Z,0
2017-11-22T06:22:57.397Z,0
2017-11-22T06:24:10.417Z,0
2017-11-22T06:25:23.407Z,0
2017-11-22T06:26:35.943Z,0
2017-11-22T06:27:48.934Z,0
2017-11-22T06:29:02.142Z,0
2017-11-22T06:30:13.712Z,0
2017-11-22T06:31:26.233Z,0
2017-11-22T06:32:39.246Z,0
2017-11-22T06:33:51.759Z,0
2017-11-22T06:35:04.723Z,0
2017-11-22T06:36:17.728Z,0
2017-11-22T06:37:30.720Z,0
2017-11-22T06:38:43.749Z,0
2017-11-22T06:39:56.711Z,0
2017-11-22T06:41:09.220Z,0
2017-11-22T06:42:21.720Z,0
2017-11-22T06:43:34.294Z,0
2017-11-22T06:44:46.628Z,0
2017-11-22T06:45:59.654Z,0
2017-11-22T06:47:12.619Z,0
2017-11-22T06:48:25.149Z,0
2017-11-22T06:49:38.200Z,0
2017-11-22T06:50:51.214Z,0
2017-11-22T06:52:03.758Z,0
2017-11-22T06:53:15.777Z,0
2017-11-22T06:54:28.789Z,0
2017-11-22T06:55:40.888Z,0
2017-11-22T06:56:53.872Z,0
2017-11-22T06:58:06.621Z,0
2017-11-22T06:59:19.135Z,0
2017-11-22T07:00:32.134Z,0
2017-11-22T07:01:44.672Z,0
2017-11-22T07:02:57.674Z,0
2017-11-22T07:04:10.673Z,0
2017-11-22T07:05:23.633Z,0
2017-11-22T07:06:36.621Z,0
2017-11-22T07:07:49.606Z,0
2017-11-22T07:09:02.600Z,0
2017-11-22T07:10:15.586Z,0
2017-11-22T07:11:27.604Z,0
2017-11-22T07:12:40.106Z,0
2017-11-22T07:13:53.087Z,0
2017-11-22T07:15:06.102Z,0
2017-11-22T07:16:50.304Z,0
2017-11-22T07:18:03.274Z,0
2017-11-22T07:19:16.274Z,0
2017-11-22T07:20:29.236Z,0
2017-11-22T07:21:42.196Z,0
2017-11-22T07:22:54.780Z,0
2017-11-22T07:24:07.807Z,0
2017-11-22T07:25:20.781Z,0
2017-11-22T07:26:33.790Z,0
2017-11-22T07:27:46.813Z,0
2017-11-22T07:28:59.555Z,0
2017-11-22T07:30:12.104Z,0
2017-11-22T07:31:24.596Z,0
2017-11-22T07:32:37.586Z,0
2017-11-22T07:33:50.509Z,0
2017-11-22T07:35:02.764Z,0
2017-11-22T07:36:15.816Z,0
2017-11-22T07:37:28.796Z,0
2017-11-22T07:38:41.774Z,0
2017-11-22T07:39:54.755Z,0
2017-11-22T07:41:07.286Z,0
2017-11-22T07:42:19.810Z,0
2017-11-22T07:43:32.812Z,0
2017-11-22T07:44:45.809Z,0
2017-11-22T07:46:29.993Z,0
2017-11-22T07:47:42.998Z,0
2017-11-22T07:48:56.029Z,0
2017-11-22T07:50:08.075Z,0
2017-11-22T07:51:21.065Z,4
2017-11-22T07:52:34.021Z,4
2017-11-22T07:53:47.022Z,4
2017-11-22T07:54:59.971Z,4
2017-11-22T07:56:12.976Z,4
2017-11-22T07:57:25.958Z,8
2017-11-22T07:58:38.487Z,12
2017-11-22T07:59:51.495Z,16
2017-11-22T08:01:04.083Z,20
2017-11-22T08:02:16.599Z,24
2017-11-22T08:03:29.598Z,32
2017-11-22T08:04:42.128Z,40
2017-11-22T08:05:54.162Z,44
2017-11-22T08:07:07.193Z,52
2017-11-22T08:08:19.283Z,68
2017-11-22T08:09:32.242Z,76
2017-11-22T08:11:16.455Z,92
2017-11-22T08:12:29.645Z,108
2017-11-22T08:13:42.641Z,116
2017-11-22T08:14:55.624Z,136
2017-11-22T08:16:08.135Z,160
2017-11-22T08:17:21.098Z,188
2017-11-22T08:18:34.085Z,228
2017-11-22T08:19:47.086Z,272
2017-11-22T08:21:00.080Z,316
2017-11-22T08:22:12.597Z,364
2017-11-22T08:23:25.594Z,412
2017-11-22T08:24:38.624Z,480
2017-11-22T08:25:51.148Z,544
2017-11-22T08:27:04.141Z,620
2017-11-22T08:28:17.129Z,700
2017-11-22T08:29:30.143Z,784
2017-11-22T08:30:42.401Z,896
2017-11-22T08:31:55.404Z,1024
2017-11-22T08:33:08.409Z,1176
2017-11-22T08:34:20.916Z,1304
2017-11-22T08:35:33.937Z,1500
2017-11-22T08:36:46.491Z,1668
2017-11-22T08:37:59.603Z,1808
2017-11-22T08:39:11.667Z,1972
2017-11-22T08:40:23.750Z,2140
2017-11-22T08:41:36.753Z,2320
2017-11-22T08:42:49.765Z,2496
2017-11-22T08:44:02.278Z,2684
2017-11-22T08:45:15.291Z,2860
2017-11-22T08:46:27.852Z,3032
2017-11-22T08:47:40.841Z,3392
2017-11-22T08:48:53.855Z,3720
2017-11-22T08:50:06.429Z,3952
2017-11-22T08:51:18.928Z,4124
2017-11-22T08:52:32.135Z,4160
2017-11-22T08:53:44.677Z,1464
2017-11-22T08:54:56.781Z,1328
2017-11-22T08:56:09.776Z,1152
2017-11-22T08:57:22.774Z,1156
2017-11-22T08:58:35.759Z,1088
2017-11-22T08:59:48.797Z,1156
2017-11-22T09:01:01.369Z,1048
2017-11-22T09:02:14.386Z,940
2017-11-22T09:03:27.379Z,920
2017-11-22T09:04:39.889Z,900
2017-11-22T09:05:52.858Z,852
2017-11-22T09:07:05.819Z,816
2017-11-22T09:08:18.821Z,816
2017-11-22T09:09:31.375Z,972
2017-11-22T09:10:44.394Z,1100
2017-11-22T09:11:56.931Z,1268
2017-11-22T09:13:09.955Z,1408
2017-11-22T09:14:22.463Z,1320
2017-11-22T09:15:35.452Z,1488
2017-11-22T09:16:48.421Z,2288
2017-11-22T09:18:01.420Z,1952
2017-11-22T09:19:13.963Z,2260
2017-11-22T09:20:26.937Z,2172
2017-11-22T09:21:39.929Z,2648
2017-11-22T09:22:52.898Z,3020
2017-11-22T09:24:05.848Z,2796
2017-11-22T09:25:18.421Z,2988
2017-11-22T09:26:30.928Z,3288
2017-11-22T09:27:43.433Z,3376
2017-11-22T09:28:56.470Z,3348
2017-11-22T09:30:08.034Z,3192
2017-11-22T09:31:21.039Z,2772
2017-11-22T09:32:33.749Z,3056
2017-11-22T09:33:46.746Z,2876
2017-11-22T09:34:59.303Z,2780
2017-11-22T09:36:11.351Z,2260
2017-11-22T09:37:24.344Z,2256
2017-11-22T09:38:36.862Z,2348
2017-11-22T09:39:49.919Z,2668
2017-11-22T09:41:02.907Z,2480
2017-11-22T09:42:15.968Z,2404
2017-11-22T09:43:28.986Z,3004
2017-11-22T09:44:41.929Z,2652
2017-11-22T09:45:54.925Z,2936
2017-11-22T09:47:07.454Z,3068
2017-11-22T09:48:19.997Z,8548
2017-11-22T09:49:32.571Z,8628
2017-11-22T09:50:45.548Z,8132
2017-11-22T09:51:58.106Z,8960
2017-11-22T09:53:11.121Z,10436
2017-11-22T09:54:24.133Z,10880
2017-11-22T09:55:37.128Z,10224
2017-11-22T09:56:50.088Z,9560
2017-11-22T09:58:02.144Z,7428
2017-11-22T09:59:14.683Z,7856
2017-11-22T10:00:27.222Z,12920
2017-11-22T10:01:40.437Z,15884
2017-11-22T10:02:53.011Z,17056
2017-11-22T10:04:05.528Z,17440
2017-11-22T10:05:18.549Z,17792
2017-11-22T10:06:31.531Z,17952
2017-11-22T10:07:44.525Z,17632
2017-11-22T10:08:57.563Z,17760
2017-11-22T10:10:10.082Z,17600
2017-11-22T10:11:22.672Z,16244
2017-11-22T10:12:35.843Z,14100
2017-11-22T10:13:48.832Z,11548
2017-11-22T10:15:01.778Z,10332
2017-11-22T10:16:14.299Z,10688
2017-11-22T10:17:26.847Z,11032
2017-11-22T10:18:39.846Z,10224
2017-11-22T10:19:51.919Z,9124
2017-11-22T10:21:03.986Z,7272
2017-11-22T10:22:16.045Z,6912
2017-11-22T10:23:28.985Z,7844
2017-11-22T10:24:42.185Z,8836
2017-11-22T10:25:55.207Z,9624
2017-11-22T10:27:08.185Z,9808
2017-11-22T10:28:21.187Z,9104
2017-11-22T10:29:34.208Z,9092
2017-11-22T10:30:47.190Z,9412
2017-11-22T10:32:00.190Z,10176
2017-11-22T10:33:12.705Z,10864
2017-11-22T10:34:25.250Z,11412
2017-11-22T10:35:38.255Z,12096
2017-11-22T10:36:50.783Z,13404
2017-11-22T10:38:03.764Z,15372
2017-11-22T10:39:16.731Z,16748
2017-11-22T10:40:28.763Z,17824
2017-11-22T10:41:41.326Z,18912
2017-11-22T10:42:54.330Z,20288
2017-11-22T10:44:07.316Z,20928
2017-11-22T10:45:19.807Z,20928
2017-11-22T10:46:32.798Z,21152
2017-11-22T10:47:45.807Z,21504
2017-11-22T10:48:58.764Z,22432
2017-11-22T10:50:11.299Z,24128
2017-11-22T10:51:24.307Z,25312
2017-11-22T10:53:08.545Z,24960
2017-11-22T10:54:21.492Z,24352
2017-11-22T10:55:34.472Z,24000
2017-11-22T10:56:46.502Z,24032
2017-11-22T10:57:59.475Z,24544
2017-11-22T10:59:11.991Z,25472
2017-11-22T11:00:25.019Z,26144
2017-11-22T11:01:37.988Z,26240
2017-11-22T11:02:50.500Z,26208
2017-11-22T11:04:03.502Z,26368
2017-11-22T11:05:16.035Z,26400
2017-11-22T11:06:28.592Z,26944
2017-11-22T11:07:41.575Z,26976
2017-11-22T11:08:54.169Z,27456
2017-11-22T11:10:06.703Z,27648
2017-11-22T11:11:19.701Z,27040
2017-11-22T11:12:32.897Z,25408
2017-11-22T11:13:46.039Z,23424
2017-11-22T11:14:59.040Z,21504
2017-11-22T11:16:12.079Z,20352
2017-11-22T11:17:25.077Z,20320
2017-11-22T11:18:38.078Z,20736
2017-11-22T11:19:50.151Z,21184
2017-11-22T11:21:02.693Z,22272
2017-11-22T11:22:15.714Z,23040
2017-11-22T11:23:28.664Z,24992
2017-11-22T11:24:41.650Z,26592
2017-11-22T11:25:54.842Z,28192
2017-11-22T11:27:07.419Z,29504
2017-11-22T11:28:20.381Z,30688
2017-11-22T11:29:33.385Z,32128
2017-11-22T11:30:45.896Z,31584
2017-11-22T11:31:58.917Z,30272
2017-11-22T11:33:11.886Z,30592
2017-11-22T11:34:24.952Z,32320
2017-11-22T11:35:37.920Z,35296
2017-11-22T11:36:49.478Z,36864
2017-11-22T11:38:02.519Z,35648
2017-11-22T11:39:15.549Z,36416
2017-11-22T11:40:28.060Z,37216
2017-11-22T11:41:41.126Z,34496
2017-11-22T11:42:54.174Z,29920
2017-11-22T11:44:06.725Z,26464
2017-11-22T11:45:19.732Z,26752
2017-11-22T11:46:32.690Z,29216
2017-11-22T11:47:45.497Z,33440
2017-11-22T11:48:58.247Z,32608
2017-11-22T11:50:10.790Z,31264
2017-11-22T11:51:22.872Z,33152
2017-11-22T11:52:35.430Z,40032
2017-11-22T11:53:48.407Z,41536
2017-11-22T11:55:01.452Z,49888
2017-11-22T11:56:14.450Z,43168
2017-11-22T11:57:27.433Z,47136
2017-11-22T11:58:40.438Z,44160
2017-11-22T11:59:53.452Z,40160
2017-11-22T12:01:05.529Z,40928
2017-11-22T12:02:18.031Z,34208
2017-11-22T12:03:30.143Z,34400
2017-11-22T12:04:43.198Z,41856
2017-11-22T12:05:55.731Z,52064
2017-11-22T12:07:08.750Z,60000
2017-11-22T12:08:21.750Z,61760
2017-11-22T12:09:34.753Z,143200
2017-11-22T12:10:47.314Z,64704
2017-11-22T12:12:00.033Z,32032
2017-11-22T12:13:12.578Z,27776
2017-11-22T12:14:24.669Z,25984
2017-11-22T12:15:36.783Z,25376
2017-11-22T12:16:49.766Z,24864
2017-11-22T12:18:02.366Z,31392
2017-11-22T12:19:13.481Z,39520
2017-11-22T12:20:25.536Z,43776
2017-11-22T12:21:38.101Z,39040
2017-11-22T12:22:51.117Z,32096
2017-11-22T12:24:04.114Z,27616
2017-11-22T12:25:16.648Z,23424
2017-11-22T12:26:29.653Z,21248
2017-11-22T12:27:42.170Z,22464
2017-11-22T12:28:55.242Z,27232
2017-11-22T12:30:07.778Z,33632
2017-11-22T12:31:19.822Z,37824
2017-11-22T12:32:32.795Z,38592
2017-11-22T12:33:45.304Z,37312
2017-11-22T12:34:57.842Z,41248
2017-11-22T12:36:10.847Z,45600
2017-11-22T12:37:23.851Z,50208
2017-11-22T12:38:36.779Z,44256
2017-11-22T12:39:49.810Z,43456
2017-11-22T12:41:02.787Z,41952
2017-11-22T12:42:14.819Z,40960
2017-11-22T12:43:27.823Z,40768
2017-11-22T12:44:40.844Z,40608
2017-11-22T12:45:53.404Z,40960
2017-11-22T12:47:06.659Z,44960
2017-11-22T12:48:19.656Z,63552
2017-11-22T12:49:31.734Z,49248
2017-11-22T12:50:44.276Z,56448
2017-11-22T12:51:57.953Z,77728
2017-11-22T12:53:10.454Z,45408
2017-11-22T12:54:23.492Z,44864
2017-11-22T12:55:36.702Z,41792
2017-11-22T12:56:49.645Z,44000
2017-11-22T12:58:02.262Z,51072
2017-11-22T12:59:15.259Z,47168
2017-11-22T13:00:28.266Z,44288
2017-11-22T13:01:41.265Z,45472
2017-11-22T13:02:53.841Z,44640
2017-11-22T13:04:06.863Z,43328
2017-11-22T13:05:19.404Z,43520
2017-11-22T13:06:31.994Z,45664
2017-11-22T13:07:45.249Z,46240
2017-11-22T13:08:58.231Z,48192
2017-11-22T13:10:10.316Z,48832
2017-11-22T13:11:23.323Z,49632
2017-11-22T13:12:36.298Z,53024
2017-11-22T13:13:49.264Z,53280
2017-11-22T13:15:03.010Z,48832
2017-11-22T13:16:16.010Z,48672
2017-11-22T13:17:28.568Z,48512
2017-11-22T13:18:41.595Z,43040
2017-11-22T13:19:54.557Z,33664
2017-11-22T13:21:38.781Z,27808
2017-11-22T13:22:51.842Z,27648
2017-11-22T13:24:05.539Z,30496
2017-11-22T13:25:22.281Z,36608
2017-11-22T13:26:35.947Z,41568
2017-11-22T13:27:48.025Z,45472
2017-11-22T13:29:00.077Z,52480
2017-11-22T13:30:12.603Z,55552
2017-11-22T13:31:25.575Z,50624
2017-11-22T13:32:38.063Z,45344
2017-11-22T13:33:50.598Z,42048
2017-11-22T13:35:02.688Z,36768
2017-11-22T13:36:15.231Z,32320
2017-11-22T13:37:27.772Z,31008
2017-11-22T13:38:40.315Z,31904
2017-11-22T13:39:53.365Z,34464
2017-11-22T13:41:05.898Z,36896
2017-11-22T13:42:18.884Z,31232
2017-11-22T13:43:31.920Z,30400
2017-11-22T13:44:44.906Z,30144
2017-11-22T13:45:57.951Z,30304
2017-11-22T13:47:10.016Z,31328
2017-11-22T13:48:22.536Z,31552
2017-11-22T13:49:35.700Z,31136
2017-11-22T13:50:48.798Z,30560
2017-11-22T13:52:01.843Z,29248
2017-11-22T13:53:15.072Z,27616
2017-11-22T13:54:28.078Z,28896
2017-11-22T13:55:41.086Z,29824
2017-11-22T13:56:54.085Z,29216
2017-11-22T13:58:06.634Z,28320
2017-11-22T13:59:19.635Z,29376
2017-11-22T14:00:32.623Z,32800
2017-11-22T14:01:45.613Z,36704
2017-11-22T14:02:58.687Z,38432
2017-11-22T14:04:11.707Z,43200
2017-11-22T14:05:24.226Z,41760
2017-11-22T14:06:37.251Z,36768
2017-11-22T14:07:50.208Z,30656
2017-11-22T14:09:03.185Z,25920
2017-11-22T14:10:16.152Z,22432
2017-11-22T14:11:29.176Z,20096
2017-11-22T14:12:42.179Z,21568
2017-11-22T14:13:55.145Z,23936
2017-11-22T14:15:08.163Z,26016
2017-11-22T14:16:21.153Z,24832
2017-11-22T14:17:34.166Z,24480
2017-11-22T14:18:46.724Z,23680
2017-11-22T14:19:59.715Z,21952
2017-11-22T14:21:12.396Z,20576
2017-11-22T14:22:24.926Z,20512
2017-11-22T14:23:37.497Z,23104
2017-11-22T14:24:50.013Z,27648
2017-11-22T14:26:02.577Z,31840
2017-11-22T14:27:15.154Z,34496
2017-11-22T14:28:27.737Z,33664
2017-11-22T14:29:40.265Z,30016
2017-11-22T14:30:53.241Z,25664
2017-11-22T14:32:05.800Z,21600
2017-11-22T14:33:18.808Z,18400
2017-11-22T14:34:31.819Z,18240
2017-11-22T14:35:44.827Z,20128
2017-11-22T14:36:57.861Z,20864
2017-11-22T14:38:10.399Z,18400
2017-11-22T14:39:22.938Z,19328
2017-11-22T14:40:35.979Z,21184
2017-11-22T14:41:48.520Z,19040
2017-11-22T14:43:01.545Z,16940
2017-11-22T14:44:14.531Z,18592
2017-11-22T14:45:27.614Z,23648
2017-11-22T14:46:40.668Z,27328
2017-11-22T14:47:53.161Z,30912
2017-11-22T14:49:06.115Z,37152
2017-11-22T14:50:18.210Z,39360
2017-11-22T14:51:30.777Z,35328
2017-11-22T14:52:43.760Z,31008
2017-11-22T14:53:56.755Z,26944
2017-11-22T14:55:10.009Z,23136
2017-11-22T14:56:22.987Z,20448
2017-11-22T14:57:36.008Z,20544
2017-11-22T14:58:49.093Z,23872
2017-11-22T15:00:01.673Z,27136
2017-11-22T15:01:14.708Z,26400
2017-11-22T15:02:27.232Z,25984
2017-11-22T15:03:40.249Z,25856
2017-11-22T15:04:53.205Z,24192
2017-11-22T15:06:05.713Z,26976
2017-11-22T15:07:18.266Z,29696
2017-11-22T15:08:31.279Z,31424
2017-11-22T15:09:44.292Z,28832
2017-11-22T15:10:57.310Z,27232
2017-11-22T15:12:10.282Z,25184
2017-11-22T15:13:22.848Z,25568
2017-11-22T15:14:34.890Z,28064
2017-11-22T15:15:47.914Z,28896
2017-11-22T15:17:00.848Z,28960
2017-11-22T15:18:13.426Z,31040
2017-11-22T15:19:26.434Z,32224
2017-11-22T15:20:38.967Z,34688
2017-11-22T15:21:51.038Z,40768
2017-11-22T15:23:03.387Z,49888
2017-11-22T15:24:16.381Z,64736
2017-11-22T15:25:29.370Z,84192
2017-11-22T15:26:42.347Z,45152
2017-11-22T15:27:54.876Z,29696
2017-11-22T15:29:07.899Z,21536
2017-11-22T15:30:20.477Z,17696
2017-11-22T15:31:33.021Z,23168
2017-11-22T15:32:45.782Z,30944
2017-11-22T15:33:58.326Z,31328
2017-11-22T15:35:11.130Z,32832
2017-11-22T15:36:24.153Z,38048
2017-11-22T15:37:37.156Z,45248
2017-11-22T15:38:49.937Z,59232
2017-11-22T15:40:02.501Z,49024
2017-11-22T15:41:15.492Z,49120
2017-11-22T15:42:28.534Z,49664
2017-11-22T15:43:41.568Z,49696
2017-11-22T15:44:54.105Z,61600
2017-11-22T15:46:06.709Z,53536
2017-11-22T15:47:19.236Z,48544
2017-11-22T15:48:32.273Z,45056
2017-11-22T15:49:44.830Z,40576
2017-11-22T15:50:57.855Z,28672
2017-11-22T15:52:10.895Z,24352
2017-11-22T15:53:23.423Z,27776
2017-11-22T15:54:35.967Z,31648
2017-11-22T15:55:48.970Z,34176
2017-11-22T15:57:01.961Z,33408
2017-11-22T15:58:14.040Z,38752
2017-11-22T15:59:27.074Z,36864
2017-11-22T16:00:40.104Z,37920
2017-11-22T16:01:52.661Z,37568
2017-11-22T16:03:05.392Z,41376
2017-11-22T16:04:17.968Z,39552
2017-11-22T16:05:30.488Z,36992
2017-11-22T16:06:43.481Z,32480
2017-11-22T16:07:55.978Z,30368
2017-11-22T16:09:08.927Z,27424
2017-11-22T16:10:20.508Z,22720
2017-11-22T16:11:33.550Z,27392
2017-11-22T16:12:46.534Z,34752
2017-11-22T16:13:59.551Z,33920
2017-11-22T16:15:12.866Z,37984
2017-11-22T16:16:25.879Z,40608
2017-11-22T16:17:38.861Z,41088
2017-11-22T16:18:51.406Z,36992
2017-11-22T16:20:03.932Z,31168
2017-11-22T16:21:16.907Z,28480
2017-11-22T16:22:29.428Z,31328
2017-11-22T16:23:42.385Z,34144
2017-11-22T16:24:54.920Z,38112
2017-11-22T16:26:07.919Z,42368
2017-11-22T16:27:20.514Z,42624
2017-11-22T16:28:34.138Z,37536
2017-11-22T16:29:47.380Z,34176
2017-11-22T16:30:59.900Z,31584
2017-11-22T16:32:11.961Z,29440
2017-11-22T16:33:24.477Z,29216
2017-11-22T16:34:37.490Z,33088
2017-11-22T16:35:50.668Z,40672
2017-11-22T16:37:03.680Z,42528
2017-11-22T16:38:16.239Z,41152
2017-11-22T16:39:29.253Z,42592
2017-11-22T16:40:42.281Z,36160
2017-11-22T16:41:55.304Z,28384
2017-11-22T16:43:07.821Z,23072
2017-11-22T16:44:20.347Z,19424
2017-11-22T16:45:32.850Z,22240
2017-11-22T16:46:44.936Z,29280
2017-11-22T16:47:57.960Z,27840